sensor_id;sensor_type;location;lat;lon;timestamp;temperature;humidity
12370;DHT22;6249;52.128;9.986;2023-07-20T00:02:07;16.60;99.90
12370;DHT22;6249;52.128;9.986;2023-07-20T00:12:08;16.60;99.90
12370;DHT22;6249;52.128;9.986;2023-07-20T00:22:09;16.50;99.90
12370;DHT22;6249;52.128;9.986;2023-07-20T00:32:09;16.40;99.90
12370;DHT22;6249;52.128;9.986;2023-07-20T00:42:10;16.40;99.90
12370;DHT22;6249;52.128;9.986;2023-07-20T00:52:11;16.40;99.90
12370;DHT22;6249;52.128;9.986;2023-07-20T01:02:16;16.40;99.90
12370;DHT22;6249;52.128;9.986;2023-07-20T01:12:42;16.40;99.90
12370;DHT22;6249;52.128;9.986;2023-07-20T01:23:29;16.10;99.90
12370;DHT22;6249;52.128;9.986;2023-07-20T01:33:32;16.00;99.90
12370;DHT22;6249;52.128;9.986;2023-07-20T01:43:36;15.90;99.90
12370;DHT22;6249;52.128;9.986;2023-07-20T01:53:36;16.00;99.90
12370;DHT22;6249;52.128;9.986;2023-07-20T02:03:37;16.00;99.90
12370;DHT22;6249;52.128;9.986;2023-07-20T02:13:40;15.90;99.90
12370;DHT22;6249;52.128;9.986;2023-07-20T02:23:41;15.80;99.90
12370;DHT22;6249;52.128;9.986;2023-07-20T02:33:46;15.80;99.90
12370;DHT22;6249;52.128;9.986;2023-07-20T02:43:46;15.70;99.90
12370;DHT22;6249;52.128;9.986;2023-07-20T02:53:49;15.80;99.90
12370;DHT22;6249;52.128;9.986;2023-07-20T03:03:50;15.70;99.90
12370;DHT22;6249;52.128;9.986;2023-07-20T03:13:50;15.50;99.90
12370;DHT22;6249;52.128;9.986;2023-07-20T03:23:51;15.60;99.90
12370;DHT22;6249;52.128;9.986;2023-07-20T03:33:53;15.60;99.90
12370;DHT22;6249;52.128;9.986;2023-07-20T03:43:56;15.70;99.90
12370;DHT22;6249;52.128;9.986;2023-07-20T03:53:58;15.70;99.90
12370;DHT22;6249;52.128;9.986;2023-07-20T04:03:58;15.50;99.90
12370;DHT22;6249;52.128;9.986;2023-07-20T04:14:01;15.80;99.90
12370;DHT22;6249;52.128;9.986;2023-07-20T04:24:04;15.70;99.90
12370;DHT22;6249;52.128;9.986;2023-07-20T04:34:05;15.70;99.90
12370;DHT22;6249;52.128;9.986;2023-07-20T04:44:05;15.80;99.90
12370;DHT22;6249;52.128;9.986;2023-07-20T04:54:06;16.00;99.90
12370;DHT22;6249;52.128;9.986;2023-07-20T05:04:06;15.90;99.90
12370;DHT22;6249;52.128;9.986;2023-07-20T05:14:07;15.70;99.90
12370;DHT22;6249;52.128;9.986;2023-07-20T05:24:08;15.60;99.90
12370;DHT22;6249;52.128;9.986;2023-07-20T05:34:08;15.60;99.90
12370;DHT22;6249;52.128;9.986;2023-07-20T05:44:09;15.60;99.90
12370;DHT22;6249;52.128;9.986;2023-07-20T05:54:09;15.70;99.90
12370;DHT22;6249;52.128;9.986;2023-07-20T06:04:13;15.90;99.90
12370;DHT22;6249;52.128;9.986;2023-07-20T06:14:16;15.90;99.90
12370;DHT22;6249;52.128;9.986;2023-07-20T06:24:17;15.80;99.90
12370;DHT22;6249;52.128;9.986;2023-07-20T06:34:17;15.60;99.90
12370;DHT22;6249;52.128;9.986;2023-07-20T06:44:18;15.80;99.90
12370;DHT22;6249;52.128;9.986;2023-07-20T06:54:19;15.90;99.90
12370;DHT22;6249;52.128;9.986;2023-07-20T07:04:24;16.10;99.90
12370;DHT22;6249;52.128;9.986;2023-07-20T07:14:27;16.40;99.90
12370;DHT22;6249;52.128;9.986;2023-07-20T07:24:28;16.80;99.90
12370;DHT22;6249;52.128;9.986;2023-07-20T07:34:33;17.10;99.90
12370;DHT22;6249;52.128;9.986;2023-07-20T07:44:36;17.30;99.90
12370;DHT22;6249;52.128;9.986;2023-07-20T07:54:37;17.80;99.90
12370;DHT22;6249;52.128;9.986;2023-07-20T08:04:37;18.10;99.90
12370;DHT22;6249;52.128;9.986;2023-07-20T08:14:39;18.70;99.90
12370;DHT22;6249;52.128;9.986;2023-07-20T08:24:40;18.60;99.90
12370;DHT22;6249;52.128;9.986;2023-07-20T08:34:41;17.60;99.90
12370;DHT22;6249;52.128;9.986;2023-07-20T08:44:47;18.30;99.90
12370;DHT22;6249;52.128;9.986;2023-07-20T08:54:49;19.90;99.90
12370;DHT22;6249;52.128;9.986;2023-07-20T09:04:49;19.80;99.90
12370;DHT22;6249;52.128;9.986;2023-07-20T09:14:52;19.70;99.90
12370;DHT22;6249;52.128;9.986;2023-07-20T09:24:53;20.60;99.90
12370;DHT22;6249;52.128;9.986;2023-07-20T09:34:54;21.00;99.90
12370;DHT22;6249;52.128;9.986;2023-07-20T09:44:57;22.20;99.90
12370;DHT22;6249;52.128;9.986;2023-07-20T09:55:03;22.40;99.60
12370;DHT22;6249;52.128;9.986;2023-07-20T10:05:05;22.30;99.90
12370;DHT22;6249;52.128;9.986;2023-07-20T10:15:11;23.60;99.20
12370;DHT22;6249;52.128;9.986;2023-07-20T10:25:17;23.20;95.80
12370;DHT22;6249;52.128;9.986;2023-07-20T10:35:18;23.10;94.00
12370;DHT22;6249;52.128;9.986;2023-07-20T10:45:21;24.30;93.90
12370;DHT22;6249;52.128;9.986;2023-07-20T10:55:35;25.00;90.80
12370;DHT22;6249;52.128;9.986;2023-07-20T11:05:38;24.50;91.30
12370;DHT22;6249;52.128;9.986;2023-07-20T11:25:58;25.90;88.30
12370;DHT22;6249;52.128;9.986;2023-07-20T11:36:03;27.10;82.10
12370;DHT22;6249;52.128;9.986;2023-07-20T11:46:06;28.20;79.10
12370;DHT22;6249;52.128;9.986;2023-07-20T11:56:10;28.80;79.70
12370;DHT22;6249;52.128;9.986;2023-07-20T12:06:11;26.20;80.60
12370;DHT22;6249;52.128;9.986;2023-07-20T12:16:15;25.20;86.00
12370;DHT22;6249;52.128;9.986;2023-07-20T12:26:16;27.50;76.80
12370;DHT22;6249;52.128;9.986;2023-07-20T12:36:17;25.90;80.80
12370;DHT22;6249;52.128;9.986;2023-07-20T12:46:18;26.20;86.70
12370;DHT22;6249;52.128;9.986;2023-07-20T12:56:18;29.80;71.10
12370;DHT22;6249;52.128;9.986;2023-07-20T13:06:19;31.50;73.90
12370;DHT22;6249;52.128;9.986;2023-07-20T13:16:20;29.50;71.80
12370;DHT22;6249;52.128;9.986;2023-07-20T13:26:21;27.40;74.50
12370;DHT22;6249;52.128;9.986;2023-07-20T13:36:22;26.30;78.30
12370;DHT22;6249;52.128;9.986;2023-07-20T13:46:23;25.40;79.60
12370;DHT22;6249;52.128;9.986;2023-07-20T13:56:24;24.40;86.10
12370;DHT22;6249;52.128;9.986;2023-07-20T14:06:25;24.50;86.00
12370;DHT22;6249;52.128;9.986;2023-07-20T14:16:26;24.20;84.10
12370;DHT22;6249;52.128;9.986;2023-07-20T14:26:26;23.50;87.90
12370;DHT22;6249;52.128;9.986;2023-07-20T14:36:30;23.00;91.00
12370;DHT22;6249;52.128;9.986;2023-07-20T14:46:33;22.60;90.90
12370;DHT22;6249;52.128;9.986;2023-07-20T14:56:37;23.10;91.70
12370;DHT22;6249;52.128;9.986;2023-07-20T15:06:41;25.90;83.90
12370;DHT22;6249;52.128;9.986;2023-07-20T15:16:43;27.10;80.60
12370;DHT22;6249;52.128;9.986;2023-07-20T15:26:46;30.70;67.10
12370;DHT22;6249;52.128;9.986;2023-07-20T15:36:47;32.00;57.20
12370;DHT22;6249;52.128;9.986;2023-07-20T15:46:52;32.60;57.60
12370;DHT22;6249;52.128;9.986;2023-07-20T15:56:56;33.60;52.00
12370;DHT22;6249;52.128;9.986;2023-07-20T16:06:56;31.80;53.10
12370;DHT22;6249;52.128;9.986;2023-07-20T16:16:57;28.20;56.90
12370;DHT22;6249;52.128;9.986;2023-07-20T16:27:00;26.20;69.70
12370;DHT22;6249;52.128;9.986;2023-07-20T16:37:02;25.90;70.20
12370;DHT22;6249;52.128;9.986;2023-07-20T16:47:03;25.30;69.60
12370;DHT22;6249;52.128;9.986;2023-07-20T16:57:04;24.60;72.20
12370;DHT22;6249;52.128;9.986;2023-07-20T17:07:05;24.10;80.50
12370;DHT22;6249;52.128;9.986;2023-07-20T17:17:08;24.40;81.30
12370;DHT22;6249;52.128;9.986;2023-07-20T17:27:11;24.10;81.40
12370;DHT22;6249;52.128;9.986;2023-07-20T17:37:14;23.90;85.30
12370;DHT22;6249;52.128;9.986;2023-07-20T17:47:16;23.60;87.30
12370;DHT22;6249;52.128;9.986;2023-07-20T17:57:19;23.50;89.10
12370;DHT22;6249;52.128;9.986;2023-07-20T18:07:20;23.10;91.10
12370;DHT22;6249;52.128;9.986;2023-07-20T18:17:21;22.80;91.10
12370;DHT22;6249;52.128;9.986;2023-07-20T18:27:22;22.40;91.70
12370;DHT22;6249;52.128;9.986;2023-07-20T18:37:22;21.90;92.70
12370;DHT22;6249;52.128;9.986;2023-07-20T18:47:25;21.70;93.80
12370;DHT22;6249;52.128;9.986;2023-07-20T18:57:29;21.20;94.80
12370;DHT22;6249;52.128;9.986;2023-07-20T19:07:30;20.70;95.40
12370;DHT22;6249;52.128;9.986;2023-07-20T19:17:31;20.20;96.50
12370;DHT22;6249;52.128;9.986;2023-07-20T19:27:31;19.90;97.70
12370;DHT22;6249;52.128;9.986;2023-07-20T19:37:34;19.80;99.90
12370;DHT22;6249;52.128;9.986;2023-07-20T19:47:35;19.10;99.90
12370;DHT22;6249;52.128;9.986;2023-07-20T19:57:38;18.80;99.90
12370;DHT22;6249;52.128;9.986;2023-07-20T20:07:38;18.40;99.90
12370;DHT22;6249;52.128;9.986;2023-07-20T20:17:39;18.00;99.90
12370;DHT22;6249;52.128;9.986;2023-07-20T20:27:42;17.70;99.90
12370;DHT22;6249;52.128;9.986;2023-07-20T20:37:43;17.50;99.90
12370;DHT22;6249;52.128;9.986;2023-07-20T20:47:43;17.30;99.90
12370;DHT22;6249;52.128;9.986;2023-07-20T20:57:47;17.00;99.90
12370;DHT22;6249;52.128;9.986;2023-07-20T21:07:47;16.70;99.90
12370;DHT22;6249;52.128;9.986;2023-07-20T21:17:48;16.40;99.90
12370;DHT22;6249;52.128;9.986;2023-07-20T21:27:54;16.10;99.90
12370;DHT22;6249;52.128;9.986;2023-07-20T21:37:54;16.00;99.90
12370;DHT22;6249;52.128;9.986;2023-07-20T21:47:55;15.70;99.90
12370;DHT22;6249;52.128;9.986;2023-07-20T21:57:58;15.50;99.90
12370;DHT22;6249;52.128;9.986;2023-07-20T22:07:58;15.60;99.90
12370;DHT22;6249;52.128;9.986;2023-07-20T22:18:05;15.30;99.90
12370;DHT22;6249;52.128;9.986;2023-07-20T22:28:06;15.10;99.90
12370;DHT22;6249;52.128;9.986;2023-07-20T22:38:06;14.90;99.90
12370;DHT22;6249;52.128;9.986;2023-07-20T22:48:07;15.00;99.90
12370;DHT22;6249;52.128;9.986;2023-07-20T22:58:07;14.60;99.90
12370;DHT22;6249;52.128;9.986;2023-07-20T23:08:10;14.50;99.90
12370;DHT22;6249;52.128;9.986;2023-07-20T23:18:11;14.40;99.90
12370;DHT22;6249;52.128;9.986;2023-07-20T23:28:11;14.30;99.90
12370;DHT22;6249;52.128;9.986;2023-07-20T23:38:12;14.30;99.90
12370;DHT22;6249;52.128;9.986;2023-07-20T23:48:16;14.40;99.90
12370;DHT22;6249;52.128;9.986;2023-07-20T23:58:17;14.60;99.90
